createdAt,value
2018-08-23T00:01:33.862Z,34.47
2018-08-23T00:04:06.497Z,35.77
2018-08-23T00:06:36.651Z,35.37
2018-08-23T00:09:08.946Z,34.57
2018-08-23T00:11:49.314Z,35.20
2018-08-23T00:14:20.412Z,34.77
2018-08-23T00:16:51.462Z,34.00
2018-08-23T00:19:20.606Z,35.90
2018-08-23T00:21:51.452Z,34.83
2018-08-23T00:24:22.379Z,36.27
2018-08-23T00:26:59.374Z,35.43
2018-08-23T00:29:30.545Z,33.93
2018-08-23T00:32:06.314Z,35.17
2018-08-23T00:34:38.395Z,34.47
2018-08-23T00:37:09.830Z,33.43
2018-08-23T00:39:40.458Z,35.83
2018-08-23T00:42:12.742Z,36.40
2018-08-23T00:44:56.437Z,37.57
2018-08-23T00:47:29.466Z,36.63
2018-08-23T00:49:58.845Z,35.80
2018-08-23T00:52:46.981Z,36.80
2018-08-23T00:55:28.553Z,34.17
2018-08-23T00:57:58.475Z,34.07
2018-08-23T01:00:29.461Z,34.30
2018-08-23T01:03:02.273Z,34.70
2018-08-23T01:05:36.346Z,34.27
2018-08-23T01:08:07.123Z,35.90
2018-08-23T01:10:40.590Z,34.43
2018-08-23T01:13:09.943Z,34.17
2018-08-23T01:15:43.408Z,33.83
2018-08-23T01:18:21.016Z,34.63
2018-08-23T01:20:52.478Z,32.50
2018-08-23T01:23:24.262Z,30.03
2018-08-23T01:25:55.234Z,30.67
2018-08-23T01:28:25.385Z,30.10
2018-08-23T01:30:56.458Z,30.43
2018-08-23T01:33:27.835Z,28.97
2018-08-23T01:36:00.626Z,27.20
2018-08-23T01:38:30.527Z,27.60
2018-08-23T01:41:05.174Z,28.13
2018-08-23T01:43:34.854Z,28.03
2018-08-23T01:46:05.017Z,28.57
2018-08-23T01:48:35.016Z,27.50
2018-08-23T01:51:04.486Z,26.80
2018-08-23T01:53:38.497Z,28.23
2018-08-23T01:56:09.287Z,26.53
2018-08-23T01:58:39.433Z,25.10
2018-08-23T02:01:15.650Z,27.67
2018-08-23T02:03:46.830Z,27.13
2018-08-23T02:06:18.440Z,26.90
2018-08-23T02:08:50.382Z,27.63
2018-08-23T02:11:22.746Z,28.70
2018-08-23T02:13:53.546Z,28.77
2018-08-23T02:16:24.215Z,29.70
2018-08-23T02:18:55.974Z,29.00
2018-08-23T02:21:27.165Z,29.27
2018-08-23T02:23:57.430Z,29.63
2018-08-23T02:26:28.441Z,28.37
2018-08-23T02:29:00.492Z,29.03
2018-08-23T02:31:31.447Z,29.37
2018-08-23T02:34:01.389Z,30.47
2018-08-23T02:36:33.139Z,30.00
2018-08-23T02:39:05.373Z,30.20
2018-08-23T02:41:36.399Z,29.13
2018-08-23T02:44:06.563Z,30.60
2018-08-23T02:46:37.407Z,29.17
2018-08-23T02:49:07.668Z,29.47
2018-08-23T02:51:43.037Z,30.10
2018-08-23T02:54:13.927Z,31.97
2018-08-23T02:56:46.948Z,31.23
2018-08-23T02:59:17.735Z,32.10
2018-08-23T03:01:50.332Z,33.80
2018-08-23T03:04:35.922Z,31.97
2018-08-23T03:07:06.900Z,32.03
2018-08-23T03:09:39.474Z,31.23
2018-08-23T03:12:14.747Z,31.40
2018-08-23T03:14:46.295Z,32.40
2018-08-23T03:17:25.228Z,33.20
2018-08-23T03:20:18.475Z,33.90
2018-08-23T03:22:50.727Z,31.53
2018-08-23T03:25:22.486Z,31.40
2018-08-23T03:27:54.779Z,31.27
2018-08-23T03:30:25.349Z,31.70
2018-08-23T03:32:55.508Z,32.27
2018-08-23T03:35:26.348Z,32.50
2018-08-23T03:37:56.737Z,32.23
2018-08-23T03:40:27.465Z,33.17
2018-08-23T03:42:58.323Z,33.93
2018-08-23T03:45:28.167Z,32.90
2018-08-23T03:47:59.927Z,31.67
2018-08-23T03:50:32.543Z,33.83
2018-08-23T03:53:02.375Z,33.10
2018-08-23T03:55:32.606Z,34.97
2018-08-23T03:58:02.700Z,34.57
2018-08-23T04:00:38.187Z,34.17
2018-08-23T04:03:12.285Z,35.53
2018-08-23T04:05:43.654Z,34.73
2018-08-23T04:08:14.672Z,34.23
2018-08-23T04:10:45.578Z,37.33
2018-08-23T04:13:16.378Z,36.60
2018-08-23T04:15:47.775Z,37.90
2018-08-23T04:18:18.184Z,40.30
2018-08-23T04:20:53.339Z,39.40
2018-08-23T04:23:24.203Z,39.07
2018-08-23T04:25:54.710Z,39.17
2018-08-23T04:28:26.693Z,37.47
2018-08-23T04:30:57.022Z,38.53
2018-08-23T04:33:26.522Z,37.03
2018-08-23T04:35:55.586Z,37.27
2018-08-23T04:38:25.491Z,38.40
2018-08-23T04:40:58.296Z,37.90
2018-08-23T04:43:27.831Z,39.10
2018-08-23T04:45:59.312Z,38.30
2018-08-23T04:48:29.183Z,37.63
2018-08-23T04:50:59.363Z,39.80
2018-08-23T04:53:30.083Z,42.03
2018-08-23T04:56:00.415Z,39.90
2018-08-23T04:58:30.627Z,39.40
2018-08-23T05:01:02.050Z,42.77
2018-08-23T05:03:32.175Z,42.97
2018-08-23T05:06:03.256Z,42.77
2018-08-23T05:08:34.262Z,42.87
2018-08-23T05:11:03.557Z,43.43
2018-08-23T05:13:41.167Z,42.77
2018-08-23T05:16:11.211Z,41.37
2018-08-23T05:18:40.743Z,43.17
2018-08-23T05:21:10.145Z,43.73
2018-08-23T05:23:41.323Z,43.53
2018-08-23T05:26:15.210Z,42.87
2018-08-23T05:28:59.413Z,42.90
2018-08-23T05:31:31.122Z,42.63
2018-08-23T05:34:02.159Z,43.23
2018-08-23T05:36:32.628Z,41.07
2018-08-23T05:39:05.523Z,42.73
2018-08-23T05:41:36.280Z,43.07
2018-08-23T05:44:11.863Z,42.27
2018-08-23T05:46:47.259Z,45.60
2018-08-23T05:49:16.610Z,45.53
2018-08-23T05:51:47.165Z,46.47
2018-08-23T05:54:18.327Z,47.30
2018-08-23T05:56:49.415Z,47.40
2018-08-23T05:59:19.833Z,46.83
2018-08-23T06:01:54.729Z,46.80
2018-08-23T06:04:36.624Z,46.37
2018-08-23T06:07:09.011Z,47.57
2018-08-23T06:09:40.944Z,46.90
2018-08-23T06:12:11.967Z,49.93
2018-08-23T06:14:44.062Z,50.10
2018-08-23T06:17:14.310Z,49.87
2018-08-23T06:19:44.461Z,50.53
2018-08-23T06:22:17.043Z,49.40
2018-08-23T06:24:49.232Z,48.63
2018-08-23T06:27:20.747Z,48.07
2018-08-23T06:29:51.326Z,48.17
2018-08-23T06:32:20.966Z,49.70
2018-08-23T06:34:52.671Z,51.17
2018-08-23T06:37:24.280Z,50.90
2018-08-23T06:39:53.846Z,47.30
2018-08-23T06:42:37.350Z,49.13
2018-08-23T06:45:07.650Z,47.30
2018-08-23T06:47:40.680Z,48.87
2018-08-23T06:50:11.651Z,47.60
2018-08-23T06:52:47.598Z,51.77
2018-08-23T06:55:22.968Z,50.00
2018-08-23T06:57:56.606Z,50.63
2018-08-23T07:00:27.124Z,51.40
2018-08-23T07:02:57.480Z,51.43
2018-08-23T07:05:27.715Z,50.83
2018-08-23T07:08:00.839Z,46.53
2018-08-23T07:10:31.162Z,50.90
2018-08-23T07:13:01.695Z,48.53
2018-08-23T07:15:31.715Z,50.50
2018-08-23T07:18:02.179Z,52.03
2018-08-23T07:20:31.370Z,51.37
2018-08-23T07:23:01.405Z,46.77
2018-08-23T07:25:36.506Z,51.23
2018-08-23T07:28:07.298Z,50.63
2018-08-23T07:30:38.607Z,52.77
2018-08-23T07:33:08.536Z,52.23
2018-08-23T07:35:39.355Z,48.67
2018-08-23T07:38:09.685Z,51.53
2018-08-23T07:40:41.535Z,46.73
2018-08-23T07:43:12.602Z,49.57
2018-08-23T07:45:42.698Z,45.60
2018-08-23T07:48:12.563Z,47.23
2018-08-23T07:50:42.688Z,45.67
2018-08-23T07:53:13.542Z,45.77
2018-08-23T07:55:44.323Z,46.00
2018-08-23T07:58:14.234Z,45.07
2018-08-23T08:00:46.436Z,47.27
2018-08-23T08:03:15.909Z,44.57
2018-08-23T08:05:47.411Z,47.47
2018-08-23T08:08:18.218Z,45.33
2018-08-23T08:10:49.518Z,48.97
2018-08-23T08:13:20.741Z,46.93
2018-08-23T08:15:52.378Z,44.97
2018-08-23T08:18:23.490Z,42.77
2018-08-23T08:21:01.774Z,40.67
2018-08-23T08:23:33.074Z,41.73
2018-08-23T08:26:03.318Z,43.60
2018-08-23T08:28:32.601Z,36.13
2018-08-23T08:31:03.359Z,34.37
2018-08-23T08:33:35.757Z,35.80
2018-08-23T08:36:06.719Z,35.03
2018-08-23T08:38:38.318Z,32.37
2018-08-23T08:41:09.622Z,33.13
2018-08-23T08:43:43.335Z,31.60
2018-08-23T08:46:13.251Z,31.33
2018-08-23T08:48:44.031Z,31.40
2018-08-23T08:51:29.159Z,30.60
2018-08-23T08:54:00.564Z,30.60
2018-08-23T08:56:35.016Z,32.63
2018-08-23T08:59:05.076Z,29.80
2018-08-23T09:01:36.756Z,32.00
2018-08-23T09:04:06.411Z,28.73
2018-08-23T09:06:51.020Z,28.90
2018-08-23T09:09:40.639Z,30.13
2018-08-23T09:12:12.554Z,30.87
2018-08-23T09:14:44.786Z,31.10
2018-08-23T09:17:31.174Z,31.37
2018-08-23T09:20:09.321Z,30.00
2018-08-23T09:22:42.619Z,26.97
2018-08-23T09:25:21.181Z,25.17
2018-08-23T09:27:52.735Z,27.07
2018-08-23T09:30:30.391Z,26.00
2018-08-23T09:33:05.219Z,29.00
2018-08-23T09:35:36.550Z,28.97
2018-08-23T09:38:14.070Z,23.50
2018-08-23T09:40:45.112Z,19.53
2018-08-23T09:43:14.782Z,17.73
2018-08-23T09:45:45.970Z,16.90
2018-08-23T09:48:16.186Z,17.80
2018-08-23T09:50:46.869Z,15.83
2018-08-23T09:53:22.270Z,14.03
2018-08-23T09:55:52.522Z,14.77
2018-08-23T09:58:27.173Z,14.97
2018-08-23T10:01:03.160Z,10.27
2018-08-23T10:03:39.472Z,9.57
2018-08-23T10:06:15.107Z,10.40
2018-08-23T10:08:51.746Z,10.20
2018-08-23T10:11:28.154Z,12.30
2018-08-23T10:14:03.638Z,14.80
2018-08-23T10:16:40.452Z,13.53
2018-08-23T10:19:16.855Z,13.80
2018-08-23T10:21:52.223Z,13.37
2018-08-23T10:24:25.561Z,11.07
2018-08-23T10:26:56.733Z,10.27
2018-08-23T10:29:28.967Z,14.03
2018-08-23T10:31:59.195Z,12.67
2018-08-23T10:34:30.941Z,12.37
2018-08-23T10:37:02.766Z,13.37
2018-08-23T10:39:32.797Z,14.23
2018-08-23T10:42:03.190Z,13.83
2018-08-23T10:44:32.690Z,14.17
2018-08-23T10:47:02.518Z,12.87
2018-08-23T10:49:34.007Z,12.37
2018-08-23T10:52:04.673Z,12.93
2018-08-23T10:54:35.185Z,11.90
2018-08-23T10:57:05.215Z,12.30
2018-08-23T10:59:36.384Z,10.73
2018-08-23T11:02:07.130Z,10.87
2018-08-23T11:04:37.273Z,15.70
2018-08-23T11:07:08.248Z,13.87
2018-08-23T11:09:43.465Z,15.90
2018-08-23T11:12:18.413Z,18.33
2018-08-23T11:14:48.575Z,17.17
2018-08-23T11:17:24.841Z,17.47
2018-08-23T11:20:01.084Z,16.40
2018-08-23T11:22:36.466Z,17.87
2018-08-23T11:25:08.039Z,17.07
2018-08-23T11:27:38.187Z,20.23
2018-08-23T11:30:09.465Z,18.17
2018-08-23T11:32:41.370Z,17.83
2018-08-23T11:35:12.347Z,18.20
2018-08-23T11:37:42.202Z,18.23
2018-08-23T11:40:12.732Z,21.10
2018-08-23T11:42:44.033Z,20.63
2018-08-23T11:45:14.110Z,21.93
2018-08-23T11:47:44.183Z,24.53
2018-08-23T11:50:15.322Z,26.10
2018-08-23T11:52:46.342Z,24.77
2018-08-23T11:55:15.948Z,27.83
2018-08-23T11:57:45.099Z,26.30
2018-08-23T12:00:15.133Z,26.10
2018-08-23T12:02:46.204Z,25.23
2018-08-23T12:05:17.515Z,28.40
2018-08-23T12:07:52.382Z,28.27
2018-08-23T12:10:25.448Z,25.43
2018-08-23T12:12:57.067Z,26.30
2018-08-23T12:15:30.665Z,28.37
2018-08-23T12:18:01.359Z,25.47
2018-08-23T12:20:30.998Z,27.23
2018-08-23T12:23:01.215Z,27.00
2018-08-23T12:25:33.489Z,26.30
2018-08-23T12:28:10.271Z,24.27
2018-08-23T12:30:40.336Z,25.47
2018-08-23T12:33:11.892Z,21.03
2018-08-23T12:35:42.225Z,25.90
2018-08-23T12:38:22.131Z,25.77
2018-08-23T12:40:58.251Z,23.40
2018-08-23T12:43:33.836Z,24.73
2018-08-23T12:46:04.306Z,22.70
2018-08-23T12:48:34.463Z,24.20
2018-08-23T12:51:04.088Z,25.37
2018-08-23T12:53:34.218Z,23.17
2018-08-23T12:56:04.416Z,22.43
2018-08-23T12:58:36.523Z,19.47
2018-08-23T13:01:07.859Z,21.87
2018-08-23T13:03:38.828Z,19.60
2018-08-23T13:06:10.203Z,22.90
2018-08-23T13:08:40.947Z,21.77
2018-08-23T13:11:10.766Z,20.47
2018-08-23T13:13:40.034Z,19.37
2018-08-23T13:16:09.507Z,17.80
2018-08-23T13:18:39.886Z,17.47
2018-08-23T13:21:09.478Z,16.90
2018-08-23T13:23:42.952Z,18.50
2018-08-23T13:26:14.151Z,15.57
2018-08-23T13:28:45.199Z,16.33
2018-08-23T13:31:15.594Z,17.47
2018-08-23T13:33:47.126Z,16.47
2018-08-23T13:36:17.016Z,16.90
2018-08-23T13:38:48.902Z,16.73
2018-08-23T13:41:20.522Z,16.27
2018-08-23T13:43:50.849Z,14.57
2018-08-23T13:46:21.997Z,15.53
2018-08-23T13:48:52.267Z,14.93
2018-08-23T13:51:22.010Z,13.67
2018-08-23T13:53:52.716Z,13.87
2018-08-23T13:56:24.292Z,13.27
2018-08-23T13:58:57.130Z,13.97
2018-08-23T14:01:28.826Z,13.93
2018-08-23T14:03:59.472Z,13.73
2018-08-23T14:06:29.568Z,12.20
2018-08-23T14:09:01.054Z,11.57
2018-08-23T14:11:31.070Z,13.50
2018-08-23T14:14:01.419Z,14.10
2018-08-23T14:16:32.829Z,15.00
2018-08-23T14:19:03.094Z,15.77
2018-08-23T14:21:33.395Z,15.33
2018-08-23T14:24:05.055Z,14.80
2018-08-23T14:26:35.143Z,14.60
2018-08-23T14:29:04.407Z,15.93
2018-08-23T14:31:35.111Z,14.77
2018-08-23T14:34:05.462Z,14.80
2018-08-23T14:36:38.015Z,17.07
2018-08-23T14:39:09.930Z,18.87
2018-08-23T14:41:39.867Z,18.47
2018-08-23T14:44:11.123Z,17.47
2018-08-23T14:46:45.879Z,18.40
2018-08-23T14:49:21.257Z,15.90
2018-08-23T14:51:51.759Z,16.57
2018-08-23T14:54:28.025Z,15.70
2018-08-23T14:57:04.122Z,14.20
2018-08-23T14:59:35.019Z,13.30
2018-08-23T15:02:05.934Z,13.17
2018-08-23T15:04:37.061Z,14.73
2018-08-23T15:07:09.022Z,11.63
2018-08-23T15:09:38.995Z,11.47
2018-08-23T15:12:10.179Z,12.50
2018-08-23T15:14:40.090Z,12.27
2018-08-23T15:17:10.655Z,10.67
2018-08-23T15:19:41.102Z,9.63
2018-08-23T15:22:11.363Z,11.73
2018-08-23T15:24:42.053Z,10.87
2018-08-23T15:27:14.161Z,9.90
2018-08-23T15:29:43.887Z,10.23
2018-08-23T15:32:14.078Z,9.13
2018-08-23T15:34:44.300Z,10.43
2018-08-23T15:37:15.239Z,11.27
2018-08-23T15:39:46.054Z,10.60
2018-08-23T15:42:16.304Z,10.20
2018-08-23T15:44:47.719Z,7.83
2018-08-23T15:47:18.675Z,8.67
2018-08-23T15:49:48.896Z,9.10
2018-08-23T15:52:19.666Z,11.20
2018-08-23T15:54:50.002Z,9.67
2018-08-23T15:57:20.490Z,10.67
2018-08-23T15:59:51.899Z,11.47
2018-08-23T16:02:22.283Z,11.67
2018-08-23T16:04:51.978Z,9.97
2018-08-23T16:07:24.647Z,8.97
2018-08-23T16:09:54.190Z,9.93
2018-08-23T16:12:24.914Z,10.30
2018-08-23T16:14:55.327Z,9.20
2018-08-23T16:17:29.754Z,11.43
2018-08-23T16:20:04.587Z,10.90
2018-08-23T16:22:36.226Z,9.67
2018-08-23T16:25:07.145Z,10.17
2018-08-23T16:27:37.334Z,11.67
2018-08-23T16:30:08.309Z,11.83
2018-08-23T16:32:38.487Z,10.83
2018-08-23T16:35:09.414Z,9.73
2018-08-23T16:37:41.467Z,10.00
2018-08-23T16:40:10.737Z,11.20
2018-08-23T16:42:39.875Z,9.87
2018-08-23T16:45:12.115Z,10.83
2018-08-23T16:47:43.059Z,18.37
2018-08-23T16:50:13.730Z,10.17
2018-08-23T16:52:44.214Z,11.67
2018-08-23T16:55:15.279Z,10.03
2018-08-23T16:57:46.835Z,10.53
2018-08-23T17:00:17.598Z,10.10
2018-08-23T17:02:49.326Z,10.83
2018-08-23T17:05:20.378Z,12.70
2018-08-23T17:07:51.063Z,10.63
2018-08-23T17:10:22.894Z,11.00
2018-08-23T17:12:53.334Z,9.87
2018-08-23T17:15:23.225Z,12.67
2018-08-23T17:17:56.507Z,11.03
2018-08-23T17:20:28.025Z,11.07
2018-08-23T17:22:59.986Z,10.10
2018-08-23T17:25:31.341Z,9.43
2018-08-23T17:28:02.856Z,8.20
2018-08-23T17:30:33.042Z,8.77
2018-08-23T17:33:04.834Z,7.30
2018-08-23T17:35:34.942Z,8.30
2018-08-23T17:38:04.446Z,8.37
2018-08-23T17:40:34.211Z,7.30
2018-08-23T17:43:04.068Z,7.80
2018-08-23T17:45:34.678Z,6.80
2018-08-23T17:48:05.086Z,7.90
2018-08-23T17:50:37.071Z,7.30
2018-08-23T17:53:08.058Z,6.80
2018-08-23T17:55:36.991Z,6.67
2018-08-23T17:58:07.322Z,6.33
2018-08-23T18:00:39.052Z,6.40
2018-08-23T18:03:09.310Z,6.07
2018-08-23T18:05:38.910Z,6.17
2018-08-23T18:08:08.998Z,6.43
2018-08-23T18:10:40.127Z,5.80
2018-08-23T18:13:10.900Z,6.50
2018-08-23T18:16:47.232Z,6.77
2018-08-23T18:19:17.667Z,6.40
2018-08-23T18:21:48.911Z,5.80
2018-08-23T18:24:18.426Z,6.53
2018-08-23T18:26:50.210Z,6.30
2018-08-23T18:29:20.916Z,6.23
2018-08-23T18:31:52.856Z,5.67
2018-08-23T18:34:24.422Z,5.93
2018-08-23T18:36:55.231Z,5.90
2018-08-23T18:39:24.957Z,5.50
2018-08-23T18:41:55.755Z,6.03
2018-08-23T18:44:26.472Z,5.33
2018-08-23T18:46:58.234Z,5.60
2018-08-23T18:49:29.863Z,4.90
2018-08-23T18:51:59.911Z,5.43
2018-08-23T18:54:29.271Z,5.33
2018-08-23T18:56:58.430Z,5.23
2018-08-23T18:59:27.987Z,5.30
2018-08-23T19:01:58.362Z,4.93
2018-08-23T19:04:28.039Z,5.17
2018-08-23T19:06:58.372Z,5.37
2018-08-23T19:09:27.947Z,5.17
2018-08-23T19:11:57.793Z,5.10
2018-08-23T19:14:28.366Z,6.43
2018-08-23T19:17:03.877Z,5.73
2018-08-23T19:19:34.934Z,5.13
2018-08-23T19:22:05.697Z,5.73
2018-08-23T19:24:35.759Z,6.20
2018-08-23T19:27:07.156Z,8.57
2018-08-23T19:29:37.842Z,6.23
2018-08-23T19:32:08.335Z,6.00
2018-08-23T19:34:38.203Z,5.17
2018-08-23T19:37:09.995Z,5.33
2018-08-23T19:39:40.379Z,4.90
2018-08-23T19:42:11.958Z,4.50
2018-08-23T19:44:48.407Z,4.47
2018-08-23T19:47:25.563Z,4.67
2018-08-23T19:49:57.458Z,4.57
2018-08-23T19:52:27.986Z,4.50
2018-08-23T19:54:59.280Z,4.60
2018-08-23T19:57:29.759Z,4.27
2018-08-23T20:00:01.231Z,4.37
2018-08-23T20:02:30.799Z,4.77
2018-08-23T20:05:00.543Z,4.03
2018-08-23T20:07:32.062Z,4.33
2018-08-23T20:10:02.126Z,3.87
2018-08-23T20:12:32.262Z,4.77
2018-08-23T20:15:01.631Z,4.60
2018-08-23T20:17:31.934Z,4.20
2018-08-23T20:20:02.383Z,4.00
2018-08-23T20:22:32.058Z,4.00
2018-08-23T20:25:03.547Z,4.57
2018-08-23T20:27:35.458Z,4.10
2018-08-23T20:30:05.307Z,4.20
2018-08-23T20:32:35.950Z,4.13
2018-08-23T20:35:07.774Z,4.60
2018-08-23T20:37:39.716Z,4.27
2018-08-23T20:40:10.026Z,4.50
2018-08-23T20:42:39.762Z,4.43
2018-08-23T20:45:11.234Z,4.00
2018-08-23T20:47:40.366Z,4.67
2018-08-23T20:50:10.469Z,3.90
2018-08-23T20:52:42.092Z,3.90
2018-08-23T20:55:12.482Z,3.80
2018-08-23T20:57:44.502Z,3.47
2018-08-23T21:00:16.231Z,3.20
2018-08-23T21:02:47.073Z,2.90
2018-08-23T21:05:19.179Z,2.97
2018-08-23T21:07:50.659Z,3.13
2018-08-23T21:10:20.942Z,2.70
2018-08-23T21:12:52.564Z,3.00
2018-08-23T21:15:22.882Z,2.90
2018-08-23T21:17:52.255Z,3.00
2018-08-23T21:20:22.197Z,3.00
2018-08-23T21:22:51.482Z,2.63
2018-08-23T21:25:21.090Z,2.73
2018-08-23T21:27:53.075Z,2.70
2018-08-23T21:30:22.818Z,2.80
2018-08-23T21:32:54.327Z,3.13
2018-08-23T21:35:24.379Z,3.40
2018-08-23T21:37:55.183Z,3.40
2018-08-23T21:40:26.275Z,3.37
2018-08-23T21:42:57.667Z,3.70
2018-08-23T21:45:28.884Z,3.40
2018-08-23T21:47:59.508Z,3.30
2018-08-23T21:50:30.915Z,3.50
2018-08-23T21:53:00.919Z,3.13
2018-08-23T21:55:37.448Z,3.30
2018-08-23T21:58:09.316Z,3.13
2018-08-23T22:00:44.631Z,2.90
2018-08-23T22:03:16.142Z,3.27
2018-08-23T22:05:46.378Z,2.97
2018-08-23T22:08:16.050Z,3.03
2018-08-23T22:10:46.786Z,3.17
2018-08-23T22:13:17.083Z,2.80
2018-08-23T22:15:49.290Z,3.10
2018-08-23T22:18:21.177Z,2.80
2018-08-23T22:20:52.458Z,2.47
2018-08-23T22:23:23.367Z,2.30
2018-08-23T22:25:55.038Z,2.57
2018-08-23T22:28:24.795Z,2.60
2018-08-23T22:30:54.807Z,2.60
2018-08-23T22:33:25.998Z,2.60
2018-08-23T22:35:58.295Z,2.30
2018-08-23T22:38:29.399Z,2.50
2018-08-23T22:41:00.446Z,2.40
2018-08-23T22:43:31.423Z,2.47
2018-08-23T22:46:00.871Z,2.60
2018-08-23T22:48:32.094Z,2.37
2018-08-23T22:51:01.903Z,2.60
2018-08-23T22:53:33.715Z,2.50
2018-08-23T22:56:03.878Z,2.53
2018-08-23T22:58:34.970Z,2.53
2018-08-23T23:01:05.115Z,2.30
2018-08-23T23:03:40.951Z,2.73
2018-08-23T23:06:11.986Z,2.30
2018-08-23T23:08:42.305Z,2.40
2018-08-23T23:11:12.079Z,2.63
2018-08-23T23:13:44.531Z,2.43
2018-08-23T23:16:15.026Z,2.13
2018-08-23T23:18:45.385Z,2.20
2018-08-23T23:21:17.845Z,2.43
2018-08-23T23:23:47.830Z,2.40
2018-08-23T23:26:17.691Z,3.37
2018-08-23T23:28:47.833Z,3.40
2018-08-23T23:31:17.899Z,3.50
2018-08-23T23:33:48.239Z,3.77
2018-08-23T23:36:19.219Z,4.27
2018-08-23T23:38:48.947Z,5.10
2018-08-23T23:41:19.145Z,5.70
2018-08-23T23:43:50.337Z,6.43
2018-08-23T23:46:19.849Z,5.97
2018-08-23T23:48:51.022Z,6.90
2018-08-23T23:51:22.795Z,8.60
2018-08-23T23:53:54.810Z,8.00
2018-08-23T23:56:24.497Z,8.57
2018-08-23T23:58:55.467Z,9.03
